Time;durP1;ratioP1;P1;durP2;ratioP2;P2;SDS_P1;SDS_P2;PMS_P1;PMS_P2;Temp;Humidity;BMP_temperature;BMP_pressure;BME280_temperature;BME280_humidity;BME280_pressure;Samples;Min_cycle;Max_cycle;Signal;HPM_P1;HPM_P2
2023/09/03 00:01:52;;;;;;;7.60;5.57;;;;;;;13.32;100.00;102658.72;6250400;22;20418;-75
2023/09/03 00:04:19;;;;;;;7.28;6.22;;;;;;;13.27;100.00;102656.53;6249470;22;20021;-76
2023/09/03 00:06:45;;;;;;;7.00;6.32;;;;;;;13.25;100.00;102658.84;6222461;22;20496;-76
2023/09/03 00:09:12;;;;;;;6.30;5.80;;;;;;;13.22;100.00;102652.41;6223105;22;20422;-76
2023/09/03 00:11:38;;;;;;;6.82;5.90;;;;;;;13.20;100.00;102662.75;6223416;22;20013;-76
2023/09/03 00:14:05;;;;;;;5.68;5.28;;;;;;;13.17;100.00;102660.94;6223295;22;20023;-76
2023/09/03 00:16:32;;;;;;;6.22;5.63;;;;;;;13.16;100.00;102664.78;6197713;22;20468;-76
2023/09/03 00:18:58;;;;;;;8.27;5.55;;;;;;;13.11;100.00;102665.22;6250087;22;20075;-76
2023/09/03 00:21:25;;;;;;;6.55;6.05;;;;;;;13.09;100.00;102666.78;6248700;22;20039;-76
2023/09/03 00:23:51;;;;;;;6.90;6.22;;;;;;;13.08;100.00;102662.59;6223078;22;20013;-76
2023/09/03 00:26:21;;;;;;;7.75;5.93;;;;;;;13.06;100.00;102660.34;6249576;22;20461;-76
2023/09/03 00:28:54;;;;;;;10.05;5.72;;;;;;;13.04;100.00;102657.31;6223008;22;20052;-76
2023/09/03 00:31:23;;;;;;;6.82;5.95;;;;;;;13.00;100.00;102670.75;6249661;22;20016;-76
2023/09/03 00:33:50;;;;;;;6.50;5.90;;;;;;;12.96;100.00;102675.41;6250119;22;20013;-76
2023/09/03 00:36:16;;;;;;;6.25;5.70;;;;;;;12.96;100.00;102677.31;6249227;22;20470;-76
2023/09/03 00:38:47;;;;;;;6.13;5.63;;;;;;;12.94;100.00;102671.63;6222910;22;20021;-76
2023/09/03 00:41:13;;;;;;;6.18;5.57;;;;;;;12.88;100.00;102666.00;6189235;23;20020;-76
2023/09/03 00:43:40;;;;;;;6.18;5.65;;;;;;;12.86;100.00;102673.66;6187413;23;20024;-76
2023/09/03 00:46:08;;;;;;;6.28;5.72;;;;;;;12.85;100.00;102674.06;6187180;23;20021;-76
2023/09/03 00:48:37;;;;;;;6.85;6.20;;;;;;;12.82;100.00;102662.28;6189010;23;20026;-76
2023/09/03 00:51:08;;;;;;;8.13;5.72;;;;;;;12.81;100.00;102655.41;6189116;23;20018;-76
2023/09/03 00:53:40;;;;;;;6.30;5.80;;;;;;;12.76;100.00;102655.16;6189515;23;20560;-76
2023/09/03 00:56:08;;;;;;;7.32;6.10;;;;;;;12.74;100.00;102660.91;6189018;23;20020;-76
2023/09/03 00:58:36;;;;;;;6.78;5.78;;;;;;;12.74;100.00;102657.47;6187313;23;20032;-76
2023/09/03 01:01:04;;;;;;;6.00;5.50;;;;;;;12.72;100.00;102654.47;6189520;23;20013;-76
2023/09/03 01:03:32;;;;;;;5.93;5.45;;;;;;;12.71;100.00;102656.38;6186951;23;20435;-76
2023/09/03 01:05:59;;;;;;;5.93;5.43;;;;;;;12.70;100.00;102652.19;6186305;23;20028;-76
2023/09/03 01:08:26;;;;;;;5.90;5.38;;;;;;;12.68;100.00;102659.84;6186705;23;20117;-76
2023/09/03 01:11:01;;;;;;;5.35;4.95;;;;;;;12.62;100.00;102659.56;6189165;23;20021;-76
2023/09/03 01:14:00;;;;;;;5.90;5.40;;;;;;;12.62;100.00;102661.47;6188418;23;20025;-76
2023/09/03 01:16:44;;;;;;;6.53;5.93;;;;;;;12.61;100.00;102657.28;6187136;23;20018;-76
2023/09/03 01:19:28;;;;;;;6.10;5.50;;;;;;;12.60;100.00;102653.88;6188360;23;20041;-76
2023/09/03 01:22:05;;;;;;;7.28;5.85;;;;;;;12.60;100.00;102642.44;6187533;23;20422;-76
2023/09/03 01:24:58;;;;;;;6.35;5.75;;;;;;;12.57;100.00;102645.91;6187468;23;20367;-76
2023/09/03 01:27:56;;;;;;;6.15;5.57;;;;;;;12.53;100.00;102651.31;6186721;23;20017;-78
2023/09/03 01:30:24;;;;;;;6.63;6.03;;;;;;;12.50;100.00;102659.38;6188418;23;20495;-76
2023/09/03 01:32:51;;;;;;;6.45;6.00;;;;;;;12.49;100.00;102666.63;6187670;23;20444;-76
2023/09/03 01:35:19;;;;;;;7.20;6.40;;;;;;;12.47;100.00;102671.63;6188417;23;20067;-75
2023/09/03 01:37:46;;;;;;;7.38;6.63;;;;;;;12.46;100.00;102674.69;6187255;23;20440;-75
2023/09/03 01:40:12;;;;;;;7.55;6.85;;;;;;;12.46;100.00;102674.69;6223616;22;20016;-75
2023/09/03 01:42:39;;;;;;;7.00;6.40;;;;;;;12.44;100.00;102677.03;6249663;22;20020;-75
2023/09/03 01:45:06;;;;;;;8.32;6.35;;;;;;;12.41;100.00;102678.59;6222676;22;20100;-75
2023/09/03 01:48:02;;;;;;;11.07;6.70;;;;;;;12.41;100.00;102675.16;6221578;22;20027;-75
2023/09/03 01:50:46;;;;;;;7.00;5.97;;;;;;;12.39;100.00;102683.59;6222114;22;20028;-75
2023/09/03 01:53:12;;;;;;;6.88;6.10;;;;;;;12.37;100.00;102679.81;6197635;22;20020;-75
2023/09/03 01:55:44;;;;;;;6.90;6.22;;;;;;;12.35;100.00;102678.31;6249650;22;20386;-75
2023/09/03 01:58:11;;;;;;;;;;;;;;;12.36;100.00;102692.41;6249926;22;20021;-75
2023/09/03 02:00:39;;;;;;;6.38;5.65;;;;;;;12.32;100.00;102700.47;6222411;22;19930;-75
2023/09/03 02:03:09;;;;;;;6.03;5.43;;;;;;;12.30;100.00;102699.38;6221667;22;20021;-75
2023/09/03 02:05:37;;;;;;;5.78;4.88;;;;;;;12.27;100.00;102684.91;6222955;22;20017;-75
2023/09/03 02:08:05;;;;;;;4.88;4.47;;;;;;;12.24;100.00;102675.03;6222043;22;20518;-75
2023/09/03 02:10:32;;;;;;;6.22;4.82;;;;;;;12.18;100.00;102671.31;6221598;22;20021;-75
2023/09/03 02:12:58;;;;;;;4.68;4.35;;;;;;;12.14;100.00;102665.25;6249664;22;20484;-74
2023/09/03 02:15:25;;;;;;;7.13;4.88;;;;;;;12.11;100.00;102674.06;6221971;22;20024;-75
2023/09/03 02:17:53;;;;;;;5.63;4.57;;;;;;;12.07;100.00;102689.38;6221101;22;20016;-75
2023/09/03 02:20:20;;;;;;;4.82;4.43;;;;;;;12.07;100.00;102675.28;6221637;22;20027;-76
2023/09/03 02:22:46;;;;;;;5.20;4.80;;;;;;;12.06;100.00;102681.78;6222498;22;20076;-75
2023/09/03 02:25:13;;;;;;;6.57;4.93;;;;;;;12.06;100.00;102681.78;6249147;22;20013;-75
2023/09/03 02:27:39;;;;;;;5.70;5.03;;;;;;;12.02;100.00;102679.91;6222024;22;20021;-75
2023/09/03 02:30:07;;;;;;;8.27;5.20;;;;;;;12.00;100.00;102674.22;6222279;22;20035;-76
2023/09/03 02:32:34;;;;;;;5.53;5.03;;;;;;;11.99;100.00;102662.06;6222104;22;20013;-75
2023/09/03 02:35:01;;;;;;;5.53;5.05;;;;;;;11.99;100.00;102654.03;6222126;22;20048;-76
2023/09/03 02:37:27;;;;;;;5.40;5.00;;;;;;;11.99;100.00;102648.72;6196705;22;20027;-76
2023/09/03 02:39:54;;;;;;;7.60;5.63;;;;;;;11.98;100.00;102625.84;6197383;22;20029;-76
2023/09/03 02:42:20;;;;;;;5.93;5.43;;;;;;;11.99;100.00;102623.94;6248676;22;20336;-75
2023/09/03 02:44:47;;;;;;;6.72;5.45;;;;;;;11.99;100.00;102616.69;6222399;22;20016;-76
2023/09/03 02:47:13;;;;;;;5.47;5.07;;;;;;;12.00;100.00;102625.41;6248407;22;20033;-75
2023/09/03 02:49:44;;;;;;;6.07;5.50;;;;;;;12.00;100.00;102626.16;6222453;22;20104;-75
2023/09/03 02:52:10;;;;;;;6.32;5.80;;;;;;;11.99;100.00;102640.69;6221693;22;20017;-76
2023/09/03 02:54:37;;;;;;;9.38;5.65;;;;;;;11.96;100.00;102644.19;6222273;22;20071;-76
2023/09/03 02:57:04;;;;;;;6.68;5.72;;;;;;;11.95;100.00;102653.34;6249107;22;20029;-76
2023/09/03 02:59:31;;;;;;;8.15;5.85;;;;;;;11.96;100.00;102651.44;6248836;22;20016;-76
2023/09/03 03:01:58;;;;;;;6.13;5.63;;;;;;;11.97;100.00;102656.38;6248870;22;20017;-76
2023/09/03 03:04:25;;;;;;;6.20;5.22;;;;;;;11.96;100.00;102654.09;6221453;22;20016;-76
2023/09/03 03:06:51;;;;;;;7.13;5.82;;;;;;;11.91;100.00;102655.28;6222504;22;20036;-76
2023/09/03 03:09:20;;;;;;;8.18;6.03;;;;;;;11.86;100.00;102665.66;6220882;22;20382;-76
2023/09/03 03:11:47;;;;;;;5.75;5.20;;;;;;;11.83;100.00;102669.13;6221943;22;20100;-76
2023/09/03 03:14:14;;;;;;;6.60;5.35;;;;;;;11.83;100.00;102674.47;6248834;22;20410;-75
2023/09/03 03:16:41;;;;;;;6.45;5.82;;;;;;;11.83;100.00;102682.47;6220899;22;20017;-76
2023/09/03 03:19:11;;;;;;;6.05;5.43;;;;;;;11.82;100.00;102686.28;6221334;22;20021;-76
2023/09/03 03:21:38;;;;;;;5.70;5.20;;;;;;;11.79;100.00;102687.09;6248869;22;20521;-76
2023/09/03 03:24:05;;;;;;;5.95;5.45;;;;;;;11.79;100.00;102692.44;6222196;22;20067;-76
2023/09/03 03:26:35;;;;;;;5.55;5.15;;;;;;;11.78;100.00;102696.25;6221720;22;20013;-76
2023/09/03 03:29:03;;;;;;;7.90;5.88;;;;;;;11.77;100.00;102689.41;6248853;22;20027;-76
2023/09/03 03:31:34;;;;;;;5.97;5.40;;;;;;;11.72;100.00;102685.22;6223110;22;20021;-76
2023/09/03 03:34:02;;;;;;;9.32;5.63;;;;;;;11.70;100.00;102687.53;6223167;22;20462;-76
2023/09/03 03:36:29;;;;;;;6.40;5.70;;;;;;;11.69;100.00;102688.69;6222516;22;20020;-75
2023/09/03 03:38:56;;;;;;;6.43;5.80;;;;;;;11.68;100.00;102682.59;6223296;22;20443;-76
2023/09/03 03:41:23;;;;;;;7.03;5.43;;;;;;;11.67;100.00;102688.34;6249670;22;20075;-76
2023/09/03 03:43:52;;;;;;;7.38;5.63;;;;;;;11.64;100.00;102695.22;6222424;22;20013;-76
2023/09/03 03:46:22;;;;;;;6.70;5.55;;;;;;;11.62;100.00;102691.44;6222196;22;20024;-76
2023/09/03 03:48:52;;;;;;;6.22;4.68;;;;;;;11.61;100.00;102696.03;6223036;22;20025;-76
2023/09/03 03:51:19;;;;;;;5.90;5.40;;;;;;;11.60;100.00;102699.84;6222517;22;20017;-75
2023/09/03 03:53:46;;;;;;;7.13;5.47;;;;;;;11.60;100.00;102694.50;6223238;22;20053;-75
2023/09/03 03:56:12;;;;;;;6.78;5.15;;;;;;;11.60;100.00;102683.84;6222843;22;20107;-75
2023/09/03 03:58:44;;;;;;;5.75;5.25;;;;;;;11.59;100.00;102687.69;6222091;22;20542;-75
2023/09/03 04:01:19;;;;;;;8.23;5.63;;;;;;;11.60;100.00;102699.09;6222837;22;20020;-76
2023/09/03 04:03:51;;;;;;;7.07;5.35;;;;;;;11.57;100.00;102707.91;6250531;22;20346;-75
2023/09/03 04:06:18;;;;;;;;;;;;;;;11.56;100.00;102711.75;6223328;22;20468;-75
2023/09/03 04:08:46;;;;;;;7.40;5.78;;;;;;;11.54;100.00;102711.38;6250182;22;20353;-75
2023/09/03 04:11:14;;;;;;;9.30;6.55;;;;;;;11.53;100.00;102709.88;6250003;22;20100;-76
2023/09/03 04:13:41;;;;;;;6.03;5.38;;;;;;;11.53;100.00;102713.28;6249210;22;20087;-76
2023/09/03 04:16:14;;;;;;;5.72;5.22;;;;;;;11.54;100.00;102709.47;6222508;22;20013;-76
2023/09/03 04:18:43;;;;;;;7.97;6.43;;;;;;;11.53;100.00;102705.28;6222822;22;20044;-76
2023/09/03 04:21:10;;;;;;;6.32;5.72;;;;;;;11.54;100.00;102703.38;6222681;22;20514;-75
2023/09/03 04:23:37;;;;;;;6.18;5.68;;;;;;;11.55;100.00;102716.31;6198007;22;20498;-76
2023/09/03 04:26:05;;;;;;;8.05;6.00;;;;;;;11.57;100.00;102714.00;6222999;22;20192;-75
2023/09/03 04:28:36;;;;;;;10.02;5.60;;;;;;;11.58;100.00;102712.09;6198050;22;20020;-75
2023/09/03 04:31:10;;;;;;;6.75;5.90;;;;;;;11.58;100.00;102718.19;6222664;22;20016;-75
2023/09/03 04:33:39;;;;;;;7.95;5.80;;;;;;;11.57;100.00;102714.00;6222748;22;20462;-76
2023/09/03 04:36:09;;;;;;;5.75;5.35;;;;;;;11.58;100.00;102714.75;6197860;22;20379;-76
2023/09/03 04:38:36;;;;;;;7.10;5.63;;;;;;;11.58;100.00;102706.75;6222552;22;20074;-76
2023/09/03 04:41:04;;;;;;;6.03;5.45;;;;;;;11.57;100.00;102713.25;6222500;22;20031;-75
2023/09/03 04:43:43;;;;;;;6.07;5.57;;;;;;;11.56;100.00;102711.75;6222163;22;20136;-76
2023/09/03 04:46:12;;;;;;;5.43;4.97;;;;;;;11.53;100.00;102720.53;6222633;22;20016;-76
2023/09/03 04:48:39;;;;;;;8.75;4.72;;;;;;;11.54;100.00;102724.72;6249762;22;20056;-76
2023/09/03 04:51:07;;;;;;;7.50;5.05;;;;;;;11.51;100.00;102725.50;6222640;22;20024;-76
2023/09/03 04:53:34;;;;;;;5.88;5.38;;;;;;;11.51;100.00;102723.59;6222281;22;20067;-76
2023/09/03 04:56:02;;;;;;;7.13;5.25;;;;;;;11.51;100.00;102736.19;6222189;22;20013;-76
2023/09/03 04:58:30;;;;;;;7.43;4.75;;;;;;;11.48;100.00;102728.97;6249209;22;20403;-76
2023/09/03 05:00:58;;;;;;;5.82;5.43;;;;;;;11.48;100.00;102729.72;6222382;22;20147;-77
2023/09/03 05:03:26;;;;;;;5.78;5.28;;;;;;;11.48;100.00;102731.63;6221756;22;20787;-76
2023/09/03 05:05:52;;;;;;;6.32;5.82;;;;;;;11.47;100.00;102738.13;6222922;22;20027;-76
2023/09/03 05:08:19;;;;;;;6.00;5.50;;;;;;;11.47;100.00;102741.53;6222264;22;20557;-76
2023/09/03 05:10:47;;;;;;;5.82;5.32;;;;;;;11.47;100.00;102748.78;6221717;22;20028;-76
2023/09/03 05:13:14;;;;;;;5.60;5.20;;;;;;;11.47;100.00;102752.22;6222377;22;20021;-77
2023/09/03 05:15:40;;;;;;;5.60;5.20;;;;;;;11.48;100.00;102761.72;6249491;22;20009;-76
2023/09/03 05:18:08;;;;;;;7.50;5.50;;;;;;;11.51;100.00;102766.28;6222316;22;20447;-76
2023/09/03 05:20:38;;;;;;;7.97;5.50;;;;;;;11.51;100.00;102766.28;6222297;22;20459;-77
2023/09/03 05:23:06;;;;;;;8.02;5.75;;;;;;;11.51;100.00;102768.94;6222245;22;20021;-76
2023/09/03 05:25:34;;;;;;;5.70;5.20;;;;;;;11.53;100.00;102779.22;6221791;22;20044;-77
2023/09/03 05:28:01;;;;;;;6.82;5.43;;;;;;;11.54;100.00;102786.06;6222937;22;20552;-77
2023/09/03 05:30:28;;;;;;;11.23;5.22;;;;;;;11.57;100.00;102785.28;6221787;22;20021;-76
2023/09/03 05:32:56;;;;;;;6.28;5.68;;;;;;;11.60;100.00;102773.78;6222664;22;20017;-77
2023/09/03 05:35:25;;;;;;;6.00;5.50;;;;;;;11.62;100.00;102779.47;6221229;22;20029;-79
2023/09/03 05:37:51;;;;;;;6.35;5.75;;;;;;;11.66;100.00;102788.22;6197395;22;20450;-75
2023/09/03 05:40:18;;;;;;;6.25;5.70;;;;;;;11.65;100.00;102798.13;6221584;22;20023;-77
2023/09/03 05:42:45;;;;;;;7.53;5.18;;;;;;;11.69;100.00;102796.19;6222550;22;20043;-78
2023/09/03 05:45:12;;;;;;;7.07;5.80;;;;;;;11.71;100.00;102793.09;6222291;22;20017;-78
2023/09/03 05:47:39;;;;;;;6.25;5.40;;;;;;;11.74;100.00;102794.22;6222035;22;20467;-79
2023/09/03 05:50:06;;;;;;;5.97;5.47;;;;;;;11.79;100.00;102794.59;6221897;22;20037;-76
2023/09/03 05:52:33;;;;;;;9.32;6.25;;;;;;;11.84;100.00;102799.50;6249210;22;20506;-78
2023/09/03 05:55:02;;;;;;;8.48;5.68;;;;;;;11.91;100.00;102806.66;6221933;22;20013;-78
2023/09/03 05:57:28;;;;;;;5.90;5.40;;;;;;;11.97;100.00;102815.75;6248807;22;20023;-78
2023/09/03 05:59:55;;;;;;;7.82;5.63;;;;;;;12.05;100.00;102816.41;6250085;22;20092;-78
2023/09/03 06:02:22;;;;;;;6.80;6.13;;;;;;;12.14;100.00;102824.69;6221855;22;20088;-78
2023/09/03 06:04:49;;;;;;;7.95;6.30;;;;;;;12.23;100.00;102823.06;6222618;22;20021;-81
2023/09/03 06:07:16;;;;;;;7.95;6.28;;;;;;;12.34;100.00;102828.28;6249175;22;20447;-81
2023/09/03 06:09:43;;;;;;;7.22;6.57;;;;;;;12.41;100.00;102832.75;6221418;22;20126;-80
2023/09/03 06:12:09;;;;;;;6.97;6.10;;;;;;;12.46;100.00;102830.38;6249251;22;20042;-82
2023/09/03 06:14:36;;;;;;;7.07;6.47;;;;;;;12.54;100.00;102834.47;6249176;22;20040;-78
2023/09/03 06:17:06;;;;;;;14.43;6.68;;;;;;;12.62;100.00;102840.50;6222379;22;20029;-77
2023/09/03 06:19:33;;;;;;;7.22;6.45;;;;;;;12.73;100.00;102835.00;6221710;22;20017;-78
2023/09/03 06:22:00;;;;;;;8.52;7.40;;;;;;;12.82;100.00;102833.31;6249395;22;20459;-78
2023/09/03 06:24:26;;;;;;;7.20;6.60;;;;;;;12.87;100.00;102832.88;6248308;22;20023;-78
2023/09/03 06:26:56;;;;;;;9.02;6.65;;;;;;;12.93;100.00;102833.94;6249268;22;20473;-79
2023/09/03 06:29:23;;;;;;;7.53;6.80;;;;;;;13.01;100.00;102838.00;6248407;22;20187;-80
2023/09/03 06:31:49;;;;;;;8.07;7.32;;;;;;;13.10;100.00;102832.16;6249458;22;20012;-79
2023/09/03 06:34:16;;;;;;;8.00;7.30;;;;;;;13.17;100.00;102832.06;6248868;22;20017;-80
2023/09/03 06:36:42;;;;;;;8.32;7.32;;;;;;;13.24;100.00;102855.25;6221669;22;20075;-80
2023/09/03 06:39:10;;;;;;;11.52;7.78;;;;;;;13.30;100.00;102856.31;6247836;22;20012;-79
2023/09/03 06:41:37;;;;;;;8.13;7.40;;;;;;;13.35;100.00;102855.84;6249139;22;20023;-77
2023/09/03 06:44:04;;;;;;;7.60;6.85;;;;;;;13.41;100.00;102856.13;6249181;22;20040;-81
2023/09/03 06:46:32;;;;;;;9.88;8.60;;;;;;;13.47;100.00;102854.50;6248637;22;20489;-81
2023/09/03 06:48:58;;;;;;;9.82;8.75;;;;;;;13.55;100.00;102862.03;6222031;22;20028;-81
2023/09/03 06:51:25;;;;;;;9.48;8.57;;;;;;;13.62;100.00;102861.88;6221707;22;20465;-81
2023/09/03 06:53:52;;;;;;;10.77;9.32;;;;;;;13.69;100.00;102863.66;6221793;22;20079;-80
2023/09/03 06:56:19;;;;;;;10.38;9.30;;;;;;;13.75;100.00;102859.38;6248330;22;20027;-80
2023/09/03 06:58:45;;;;;;;10.73;9.68;;;;;;;13.84;100.00;102861.50;6249149;22;20017;-80
2023/09/03 07:01:12;;;;;;;12.02;10.57;;;;;;;13.91;100.00;102858.69;6248498;22;20038;-82
2023/09/03 07:03:39;;;;;;;10.93;9.73;;;;;;;14.01;100.00;102871.09;6248914;22;20092;-81
2023/09/03 07:06:05;;;;;;;11.50;10.40;;;;;;;14.11;100.00;102878.19;6198268;22;20152;-81
2023/09/03 07:08:33;;;;;;;11.80;10.57;;;;;;;14.19;100.00;102866.19;6249474;22;20012;-80
2023/09/03 07:11:00;;;;;;;11.05;9.70;;;;;;;14.25;100.00;102875.25;6250370;22;20017;-81
2023/09/03 07:13:27;;;;;;;10.57;9.23;;;;;;;14.30;100.00;102872.09;6249766;22;20440;-81
2023/09/03 07:15:53;;;;;;;10.95;9.73;;;;;;;14.40;100.00;102877.63;6250425;22;20091;-81
2023/09/03 07:18:20;;;;;;;10.60;9.60;;;;;;;14.48;100.00;102877.09;6249653;22;20071;-80
2023/09/03 07:20:47;;;;;;;10.23;9.23;;;;;;;14.56;100.00;102881.13;6250334;22;20447;-81
2023/09/03 07:23:13;;;;;;;12.25;10.05;;;;;;;14.67;100.00;102883.59;6249315;22;20043;-79
2023/09/03 07:25:41;;;;;;;9.88;8.88;;;;;;;14.85;100.00;102883.19;6249405;22;20020;-79
2023/09/03 07:28:08;;;;;;;12.80;10.00;;;;;;;14.99;100.00;102882.88;6249961;22;20502;-78
2023/09/03 07:30:35;;;;;;;10.98;9.85;;;;;;;15.12;100.00;102881.06;6249957;22;20020;-78
2023/09/03 07:33:01;;;;;;;11.23;10.07;;;;;;;15.27;100.00;102889.50;6223808;22;20536;-80
2023/09/03 07:35:30;;;;;;;17.77;10.32;;;;;;;15.36;100.00;102884.31;6248720;22;20021;-78
2023/09/03 07:37:57;;;;;;;14.60;10.00;;;;;;;15.49;100.00;102897.81;6250316;22;20088;-78
2023/09/03 07:40:24;;;;;;;11.05;9.70;;;;;;;15.60;100.00;102904.44;6248960;22;20457;-79
2023/09/03 07:42:51;;;;;;;10.82;9.68;;;;;;;15.72;100.00;102907.59;6223542;22;20016;-79
2023/09/03 07:45:17;;;;;;;14.70;9.55;;;;;;;15.83;100.00;102913.47;6249920;22;20021;-79
2023/09/03 07:47:44;;;;;;;12.13;10.55;;;;;;;15.90;100.00;102908.66;6250133;22;20013;-79
2023/09/03 07:50:11;;;;;;;14.98;10.18;;;;;;;16.03;100.00;102919.44;6249321;22;20381;-79
2023/09/03 07:52:37;;;;;;;11.13;9.85;;;;;;;16.19;100.00;102913.25;6249905;22;20023;-79
2023/09/03 07:55:04;;;;;;;11.57;10.48;;;;;;;16.36;100.00;102916.66;6250176;22;20438;-79
2023/09/03 07:57:32;;;;;;;10.88;9.77;;;;;;;16.45;99.99;102908.69;6222692;22;20098;-80
2023/09/03 07:59:58;;;;;;;9.93;9.02;;;;;;;16.50;99.83;102908.16;6223261;22;20099;-80
2023/09/03 08:02:25;;;;;;;10.35;9.45;;;;;;;16.58;99.53;102920.97;6249807;22;20678;-79
2023/09/03 08:04:51;;;;;;;11.63;10.02;;;;;;;16.75;99.38;102908.22;6222522;22;20445;-80
2023/09/03 08:07:18;;;;;;;10.88;9.85;;;;;;;16.86;99.32;102907.88;6249720;22;20016;-81
2023/09/03 08:09:45;;;;;;;11.27;10.18;;;;;;;17.00;97.20;102907.44;6250229;22;20083;-81
2023/09/03 08:12:12;;;;;;;13.00;9.60;;;;;;;17.39;97.78;102906.22;6223021;22;20024;-81
2023/09/03 08:14:39;;;;;;;11.32;10.13;;;;;;;17.63;93.01;102906.56;6250205;22;20021;-80
2023/09/03 08:17:05;;;;;;;16.17;10.27;;;;;;;17.85;92.17;102910.06;6250017;22;20082;-81
2023/09/03 08:19:32;;;;;;;12.43;10.25;;;;;;;18.14;89.93;102909.81;6249304;22;20013;-81
2023/09/03 08:21:58;;;;;;;10.15;9.15;;;;;;;18.34;90.89;102914.88;6250156;22;20501;-81
2023/09/03 08:24:26;;;;;;;11.80;9.82;;;;;;;18.58;89.67;102913.19;6248807;22;20225;-81
2023/09/03 08:26:53;;;;;;;11.05;9.77;;;;;;;18.74;88.08;102906.84;6247877;22;20013;-78
2023/09/03 08:29:19;;;;;;;10.60;9.40;;;;;;;18.94;88.84;102899.09;6248722;22;20591;-81
2023/09/03 08:31:46;;;;;;;11.10;10.10;;;;;;;18.89;85.67;102902.38;6249437;22;20016;-79
2023/09/03 08:34:14;;;;;;;10.82;9.82;;;;;;;19.14;84.65;102906.06;6248691;22;20027;-81
2023/09/03 08:36:40;;;;;;;11.73;10.50;;;;;;;19.42;82.93;102907.59;6221764;22;20026;-81
2023/09/03 08:39:07;;;;;;;10.18;9.27;;;;;;;19.62;83.21;102905.22;6248806;22;20024;-81
2023/09/03 08:41:38;;;;;;;12.02;9.35;;;;;;;19.81;82.57;102910.63;6248665;22;20012;-81
2023/09/03 08:44:16;;;;;;;10.57;9.52;;;;;;;20.08;79.88;102904.41;6249890;22;20024;-80
2023/09/03 08:46:46;;;;;;;11.43;9.20;;;;;;;20.33;79.15;102914.91;6221913;22;20152;-80
2023/09/03 08:49:15;;;;;;;10.05;9.15;;;;;;;20.40;77.00;102911.88;6249065;22;20051;-80
2023/09/03 08:51:42;;;;;;;11.35;9.10;;;;;;;20.43;76.56;102924.50;6249196;22;20071;-80
2023/09/03 08:54:10;;;;;;;12.57;8.30;;;;;;;20.43;74.20;102929.16;6249301;22;20055;-80
2023/09/03 08:56:36;;;;;;;8.70;7.97;;;;;;;20.53;74.77;102919.81;6249445;22;20017;-79
2023/09/03 08:59:03;;;;;;;8.77;7.88;;;;;;;20.64;72.80;102922.78;6249385;22;20738;-80
2023/09/03 09:01:31;;;;;;;11.23;9.02;;;;;;;21.08;74.44;102922.25;6248837;22;20082;-80
2023/09/03 09:04:03;;;;;;;11.52;9.10;;;;;;;21.26;73.19;102916.72;6248786;22;20083;-80
2023/09/03 09:06:29;;;;;;;;;;;;;;;21.46;75.50;102918.88;6249823;22;20091;-80
2023/09/03 09:08:58;;;;;;;9.18;8.38;;;;;;;21.82;72.37;102918.56;6249883;22;19927;-80
2023/09/03 09:11:33;;;;;;;10.13;9.15;;;;;;;21.69;70.63;102928.16;6248342;22;20148;-81
2023/09/03 09:14:01;;;;;;;8.43;7.72;;;;;;;21.69;72.36;102922.72;6249503;22;20070;-80
2023/09/03 09:16:27;;;;;;;7.57;7.03;;;;;;;21.70;69.40;102918.81;6248851;22;20454;-79
2023/09/03 09:18:56;;;;;;;7.50;6.80;;;;;;;21.73;66.21;102915.16;6248885;22;20322;-78
2023/09/03 09:21:24;;;;;;;7.25;6.72;;;;;;;21.90;67.48;102916.97;6248345;22;20012;-79
2023/09/03 09:23:59;;;;;;;6.90;6.40;;;;;;;22.07;67.18;102916.53;6249419;22;20490;-80
2023/09/03 09:26:31;;;;;;;5.90;5.43;;;;;;;22.38;63.97;102916.06;6221759;22;20447;-80
2023/09/03 09:29:01;;;;;;;;;;;;;;;22.57;66.83;102917.31;6249621;22;20068;-80
2023/09/03 09:31:33;;;;;;;7.40;5.82;;;;;;;22.51;63.55;102913.75;6248230;22;19999;-78
2023/09/03 09:34:02;;;;;;;6.53;5.95;;;;;;;22.53;64.09;102917.50;6248837;22;20519;-79
2023/09/03 09:36:30;;;;;;;8.85;5.82;;;;;;;22.52;64.57;102918.72;6247444;22;20088;-79
2023/09/03 09:39:05;;;;;;;7.07;5.85;;;;;;;22.62;61.18;102917.41;6221956;22;20391;-79
2023/09/03 09:41:37;;;;;;;5.88;5.47;;;;;;;22.64;61.60;102916.94;6249238;22;20060;-79
2023/09/03 09:44:10;;;;;;;5.72;5.32;;;;;;;22.83;60.75;102923.63;6222436;22;20104;-79
2023/09/03 09:46:39;;;;;;;5.95;4.97;;;;;;;23.01;58.42;102927.31;6248669;22;20458;-79
2023/09/03 09:49:07;;;;;;;5.78;5.38;;;;;;;23.20;58.82;102931.25;6249118;22;20012;-78
2023/09/03 09:51:33;;;;;;;5.75;5.35;;;;;;;23.26;56.42;102923.94;6248404;22;20107;-79
2023/09/03 09:54:02;;;;;;;6.03;5.32;;;;;;;23.21;56.19;102928.06;6249526;22;20525;-81
2023/09/03 09:56:34;;;;;;;4.90;4.60;;;;;;;23.19;57.78;102924.34;6196315;22;20103;-79
2023/09/03 09:59:01;;;;;;;4.82;4.40;;;;;;;23.31;54.76;102925.97;6222245;22;20020;-79
2023/09/03 10:01:49;;;;;;;5.68;5.15;;;;;;;23.54;57.23;102927.00;6220358;22;20095;-81
2023/09/03 10:04:26;;;;;;;5.05;4.40;;;;;;;23.66;54.55;102927.84;6248971;22;20417;-79
2023/09/03 10:06:54;;;;;;;4.57;4.20;;;;;;;23.54;54.21;102933.19;6249041;22;20013;-81
2023/09/03 10:09:20;;;;;;;5.25;4.60;;;;;;;23.44;52.84;102929.09;6248139;22;20087;-79
2023/09/03 10:11:48;;;;;;;4.45;4.05;;;;;;;23.42;53.34;102936.97;6248602;22;20046;-80
2023/09/03 10:14:14;;;;;;;4.30;4.00;;;;;;;23.47;51.32;102933.56;6248593;22;20023;-80
2023/09/03 10:16:41;;;;;;;3.95;3.67;;;;;;;23.47;54.14;102930.09;6220785;22;20032;-79
2023/09/03 10:19:13;;;;;;;4.20;3.90;;;;;;;23.24;53.99;102931.81;6249552;22;20084;-79
2023/09/03 10:21:42;;;;;;;6.60;5.05;;;;;;;23.29;54.74;102926.44;6248324;22;20088;-80
2023/09/03 10:24:23;;;;;;;6.85;4.68;;;;;;;23.51;54.01;102925.22;6223881;22;20017;-78
2023/09/03 10:26:54;;;;;;;6.05;4.75;;;;;;;23.52;53.02;102934.84;6248456;22;20075;-76
2023/09/03 10:29:22;;;;;;;;;;;;;;;23.39;56.29;102927.06;6248327;22;20881;-77
2023/09/03 10:31:50;;;;;;;6.15;4.10;;;;;;;23.19;56.50;102925.06;6248286;22;19920;-75
2023/09/03 10:34:17;;;;;;;3.70;3.50;;;;;;;23.31;53.71;102917.81;6246677;22;20058;-77
2023/09/03 10:37:06;;;;;;;3.40;3.20;;;;;;;23.65;53.89;102929.06;6248506;22;20012;-76
2023/09/03 10:39:34;;;;;;;4.28;2.83;;;;;;;23.48;51.06;102918.00;6248464;22;20012;-75
2023/09/03 10:42:23;;;;;;;4.03;3.72;;;;;;;23.64;52.04;102911.25;6250252;22;20094;-75
2023/09/03 10:44:51;;;;;;;3.10;2.78;;;;;;;23.70;52.75;102910.09;6249025;22;20088;-76
2023/09/03 10:47:18;;;;;;;3.83;2.30;;;;;;;23.64;52.01;102917.44;6222566;22;20013;-75
2023/09/03 10:49:47;;;;;;;4.15;3.75;;;;;;;23.39;52.16;102910.00;6223304;22;20012;-76
2023/09/03 10:52:31;;;;;;;3.85;3.50;;;;;;;23.40;54.39;102908.78;6222297;22;20088;-75
2023/09/03 10:55:20;;;;;;;3.53;3.15;;;;;;;23.51;53.70;102904.22;6249756;22;20592;-76
2023/09/03 10:58:08;;;;;;;2.38;2.28;;;;;;;23.55;50.04;102904.03;6223289;22;20079;-77
2023/09/03 11:00:35;;;;;;;2.88;2.67;;;;;;;23.57;49.96;102905.06;6227797;22;20439;-75
2023/09/03 11:03:16;;;;;;;3.45;3.20;;;;;;;23.64;51.63;102909.28;6222535;22;20017;-77
2023/09/03 11:06:22;;;;;;;3.53;3.20;;;;;;;23.70;51.27;102912.06;6222626;22;20016;-78
2023/09/03 11:09:09;;;;;;;3.30;3.10;;;;;;;23.75;50.47;102905.94;6249799;22;20016;-78
2023/09/03 11:11:40;;;;;;;3.58;3.28;;;;;;;23.70;50.79;102899.22;6222054;22;20017;-76
2023/09/03 11:14:07;;;;;;;5.72;3.70;;;;;;;23.69;52.13;102911.31;6248941;22;20023;-77
2023/09/03 11:16:36;;;;;;;3.50;3.05;;;;;;;23.66;52.91;102906.84;6249710;22;20023;-77
2023/09/03 11:19:07;;;;;;;4.97;3.67;;;;;;;23.81;53.49;102904.78;6249804;22;20017;-76
2023/09/03 11:21:35;;;;;;;4.45;3.90;;;;;;;23.74;51.91;102904.44;6249202;22;20388;-77
2023/09/03 11:24:03;;;;;;;3.97;3.78;;;;;;;23.89;53.13;102914.00;6250075;22;20039;-76
2023/09/03 11:26:32;;;;;;;3.72;3.50;;;;;;;23.97;50.56;102911.59;6249293;22;20017;-77
2023/09/03 11:29:01;;;;;;;4.40;3.75;;;;;;;23.94;52.07;102901.69;6249522;22;20446;-76